Shimonoseki, Japan

2:19 PM JST on March 02, 2015 (GMT +0900)
Kitakyushu | Change Station
CLOSE
Current Station
Airport
Location: Kitakyushu,
Elevation: 30 ft
Nearby Weather Stations

Elev 30 ft 33.85 °N, 131.04 °E | Updated 19 minutes ago

Partly Cloudy
Partly Cloudy
50 °F
Feels Like 50 °F
N
13
Wind Variable Wind from NNW

Today
High -- | Low -- °F
--% Chance of Precip.
Yesterday
High -- | Low -- °F
Precip. -- in
6:44 AM 6:12 PM
Waxing Gibbous, 89% visible
Pressure 30.06 in
Visibility 6.2 miles
Clouds Few 3000 ft
Dew Point 32 °F
Humidity 50%
Rainfall 0.00 in
Snow Depth Not available.
UV 6 out of 12
Pollen Not available.
Air Quality Not available.
Flu Activity Not available.
METAR RJFR 020500Z 33011KT 9999 FEW030 10/00 Q1018

More Conditions Fewer Conditions

Pressure 30.06 in
Visibility 6.2 miles
Clouds Few 3000 ft
Dew Point 32 °F
Humidity 50%
Rainfall 0.00 in
Snow Depth Not available.
UV 6 out of 12
Pollen Not available.
Air Quality Not available.
Flu Activity Not available.
METAR RJFR 020500Z 33011KT 9999 FEW030 10/00 Q1018

More Conditions Fewer Conditions

10-Day Weather Forecast

Almanac

Astronomy

Mar. 02, 2015 Rise Set
Actual Time
Civil Twilight
Nautical Twilight
Astronomical Twilight
Moon
Length of Visible Light
Length of Day
Tomorrow will be .
, % of the Moon is Illuminated

Today's Extremes

Country Highs Country Lows

Community

WunderPhotos

Upload Photos

1,801,729 photos uploaded!

WunderBlogs® & News

Nearby

Air Quality

  Air Quality AQ Index Pollutant
Not available.

Snow Depth

Station Depth Elevation

Earthquake Activity

City Distance Mag. Time & Date
Minimum magnitude displayed is 2.5.

Coastal Water Temperatures

Place Temperature

Nearby Weather Stations